createdAt,value
2019-05-03T00:00:18.492Z,3.53
2019-05-03T00:02:59.179Z,4.77
2019-05-03T00:05:33.576Z,4.80
2019-05-03T00:08:07.015Z,4.53
2019-05-03T00:10:39.008Z,4.83
2019-05-03T00:13:10.069Z,6.97
2019-05-03T00:15:59.933Z,7.00
2019-05-03T00:18:32.806Z,7.10
2019-05-03T00:21:04.518Z,7.63
2019-05-03T00:23:35.184Z,6.60
2019-05-03T00:26:06.475Z,5.90
2019-05-03T00:28:37.741Z,6.33
2019-05-03T00:31:09.209Z,5.50
2019-05-03T00:33:53.814Z,4.87
2019-05-03T01:03:03.485Z,3.50
2019-05-03T01:05:38.692Z,3.50
2019-05-03T01:08:09.711Z,2.77
2019-05-03T01:10:42.130Z,3.10
2019-05-03T01:13:14.098Z,3.17
2019-05-03T01:15:55.827Z,3.50
2019-05-03T01:18:27.241Z,2.97
2019-05-03T01:20:58.121Z,3.50
2019-05-03T01:23:29.377Z,3.53
2019-05-03T01:26:02.443Z,3.40
2019-05-03T01:28:33.856Z,3.40
2019-05-03T01:31:05.190Z,3.10
2019-05-03T01:33:36.875Z,3.00
2019-05-03T01:36:08.416Z,2.90
2019-05-03T01:38:42.004Z,2.80
2019-05-03T01:41:12.537Z,2.43
2019-05-03T01:43:50.140Z,2.50
2019-05-03T01:46:22.763Z,2.17
2019-05-03T01:49:13.618Z,2.50
2019-05-03T01:52:06.887Z,2.93
2019-05-03T01:54:38.327Z,2.77
2019-05-03T01:57:09.271Z,2.60
2019-05-03T01:59:42.606Z,2.60
2019-05-03T02:02:27.501Z,2.60
2019-05-03T02:05:15.890Z,2.03
2019-05-03T02:07:48.681Z,2.00
2019-05-03T02:10:19.719Z,1.97
2019-05-03T02:12:52.247Z,1.90
2019-05-03T02:15:23.645Z,2.00
2019-05-03T02:17:55.390Z,2.23
2019-05-03T02:20:26.431Z,2.07
2019-05-03T02:22:57.360Z,2.40
2019-05-03T02:25:28.638Z,2.50
2019-05-03T02:28:01.793Z,2.70
2019-05-03T02:30:33.383Z,3.13
2019-05-03T02:33:04.720Z,3.07
2019-05-03T02:35:35.636Z,3.23
2019-05-03T02:38:06.947Z,3.00
2019-05-03T02:40:39.172Z,3.43
2019-05-03T02:43:31.069Z,3.37
2019-05-03T02:46:19.949Z,3.77
2019-05-03T02:49:09.436Z,3.93
2019-05-03T02:51:40.465Z,3.53
2019-05-03T02:54:12.424Z,3.37
2019-05-03T02:56:45.824Z,4.10
2019-05-03T02:59:16.170Z,4.67
2019-05-03T03:01:48.514Z,4.60
2019-05-03T03:04:19.983Z,4.83
2019-05-03T03:06:55.616Z,6.07
2019-05-03T03:09:26.869Z,5.73
2019-05-03T03:12:01.281Z,5.53
2019-05-03T03:14:36.255Z,4.83
2019-05-03T03:17:09.505Z,4.90
2019-05-03T03:19:46.155Z,5.30
2019-05-03T03:22:19.309Z,5.23
2019-05-03T03:24:55.894Z,5.07
2019-05-03T03:27:29.012Z,5.33
2019-05-03T03:30:29.046Z,4.67
2019-05-03T03:33:08.145Z,5.57
2019-05-03T03:35:38.477Z,4.07
2019-05-03T03:38:11.731Z,4.80
2019-05-03T03:40:45.293Z,4.77
2019-05-03T03:43:19.183Z,4.23
2019-05-03T03:45:51.694Z,3.93
2019-05-03T03:48:26.553Z,4.90
2019-05-03T03:50:58.228Z,4.40
2019-05-03T03:53:35.416Z,4.07
2019-05-03T03:56:06.185Z,3.87
2019-05-03T03:58:37.437Z,4.10
2019-05-03T04:01:08.945Z,3.50
2019-05-03T04:03:40.743Z,3.67
2019-05-03T04:06:11.907Z,3.67
2019-05-03T04:08:45.348Z,3.53
2019-05-03T04:11:16.843Z,3.40
2019-05-03T04:13:49.047Z,3.00
2019-05-03T04:16:29.877Z,3.10
2019-05-03T04:19:05.908Z,2.87
2019-05-03T04:21:37.191Z,2.30
2019-05-03T04:24:19.887Z,2.90
2019-05-03T04:26:56.218Z,3.00
2019-05-03T04:29:27.276Z,2.60
2019-05-03T04:32:01.586Z,2.27
2019-05-03T04:34:37.279Z,2.00
2019-05-03T04:37:11.847Z,2.20
2019-05-03T04:39:46.809Z,2.00
2019-05-03T04:42:21.318Z,2.30
2019-05-03T04:44:52.399Z,1.83
2019-05-03T04:47:26.280Z,1.97
2019-05-03T04:49:57.160Z,2.00
2019-05-03T04:52:28.361Z,1.60
2019-05-03T04:55:00.629Z,1.73
2019-05-03T04:57:44.239Z,1.73
2019-05-03T05:00:10.577Z,1.60
2019-05-03T05:02:38.788Z,1.40
2019-05-03T05:05:10.800Z,1.47
2019-05-03T05:07:45.412Z,1.37
2019-05-03T05:10:15.697Z,1.50
2019-05-03T05:12:46.630Z,1.43
2019-05-03T05:15:17.770Z,1.50
2019-05-03T05:17:59.522Z,1.57
2019-05-03T05:20:40.510Z,1.37
2019-05-03T05:23:12.199Z,1.87
2019-05-03T05:25:48.538Z,1.80
2019-05-03T05:28:31.616Z,1.50
2019-05-03T05:31:04.792Z,1.50
2019-05-03T05:33:47.173Z,1.60
2019-05-03T05:36:18.417Z,1.60
2019-05-03T05:38:50.274Z,1.50
2019-05-03T05:41:32.461Z,1.47
2019-05-03T05:44:05.261Z,1.43
2019-05-03T05:46:45.343Z,1.30
2019-05-03T05:49:17.959Z,1.33
2019-05-03T05:51:49.258Z,1.37
2019-05-03T05:54:20.216Z,1.40
2019-05-03T05:57:05.140Z,1.57
2019-05-03T05:59:49.609Z,1.30
2019-05-03T06:02:20.950Z,1.23
2019-05-03T06:04:54.349Z,1.47
2019-05-03T06:07:46.673Z,1.30
2019-05-03T06:10:24.865Z,1.40
2019-05-03T06:13:15.256Z,1.40
2019-05-03T06:16:01.301Z,1.60
2019-05-03T06:18:40.936Z,1.47
2019-05-03T06:21:25.407Z,1.33
2019-05-03T06:24:00.713Z,1.53
2019-05-03T06:26:49.081Z,1.47
2019-05-03T06:29:20.454Z,1.13
2019-05-03T06:32:11.006Z,1.60
2019-05-03T06:34:42.445Z,1.30
2019-05-03T06:37:15.672Z,1.50
2019-05-03T06:39:46.010Z,1.37
2019-05-03T06:42:19.347Z,1.20
2019-05-03T06:44:50.946Z,1.43
2019-05-03T06:47:22.701Z,1.27
2019-05-03T06:49:55.250Z,1.23
2019-05-03T06:52:29.276Z,1.30
2019-05-03T06:55:00.409Z,1.40
2019-05-03T06:57:32.704Z,1.50
2019-05-03T07:00:21.356Z,1.20
2019-05-03T07:03:11.627Z,1.60
2019-05-03T07:06:00.101Z,1.00
2019-05-03T07:08:56.093Z,1.50
2019-05-03T07:11:27.437Z,1.60
2019-05-03T07:13:58.042Z,1.30
2019-05-03T07:16:30.061Z,1.33
2019-05-03T07:19:01.844Z,1.13
2019-05-03T07:21:35.288Z,1.20
2019-05-03T07:24:06.226Z,1.30
2019-05-03T07:26:37.926Z,1.23
2019-05-03T07:29:09.346Z,1.30
2019-05-03T07:31:40.299Z,0.97
2019-05-03T07:34:11.644Z,1.30
2019-05-03T07:36:44.623Z,1.20
2019-05-03T07:39:15.698Z,1.60
2019-05-03T07:41:46.722Z,1.30
2019-05-03T07:44:17.658Z,1.30
2019-05-03T07:46:49.722Z,1.30
2019-05-03T07:49:44.739Z,1.23
2019-05-03T07:52:16.230Z,1.30
2019-05-03T07:54:47.791Z,1.50
2019-05-03T07:57:30.730Z,1.10
2019-05-03T08:00:02.051Z,1.50
2019-05-03T08:02:33.354Z,1.20
2019-05-03T08:05:05.263Z,1.47
2019-05-03T08:07:36.940Z,1.10
2019-05-03T08:10:09.489Z,1.00
2019-05-03T08:12:41.510Z,1.10
2019-05-03T08:15:11.919Z,1.30
2019-05-03T08:17:45.001Z,1.20
2019-05-03T08:20:16.610Z,1.43
2019-05-03T08:22:48.638Z,1.33
2019-05-03T08:25:20.208Z,1.20
2019-05-03T08:27:51.136Z,1.43
2019-05-03T08:30:27.099Z,1.60
2019-05-03T08:33:05.760Z,1.40
2019-05-03T08:35:42.247Z,1.60
2019-05-03T08:38:15.307Z,1.60
2019-05-03T08:40:48.886Z,1.73
2019-05-03T08:43:19.938Z,1.77
2019-05-03T08:45:51.201Z,1.30
2019-05-03T08:48:22.462Z,1.33
2019-05-03T08:50:55.783Z,1.67
2019-05-03T08:53:27.063Z,1.60
2019-05-03T08:55:58.659Z,1.30
2019-05-03T08:58:30.368Z,1.30
2019-05-03T09:01:01.298Z,1.30
2019-05-03T09:03:32.240Z,3.10
2019-05-03T09:06:04.666Z,1.40
2019-05-03T09:08:36.271Z,1.50
2019-05-03T09:11:15.404Z,1.30
2019-05-03T09:13:55.714Z,1.50
2019-05-03T09:16:27.317Z,1.30
2019-05-03T09:18:58.324Z,1.40
2019-05-03T09:21:29.784Z,1.17
2019-05-03T09:24:01.790Z,1.70
2019-05-03T09:26:34.688Z,1.23
2019-05-03T09:29:06.007Z,1.30
2019-05-03T09:31:37.766Z,1.30
2019-05-03T09:34:09.038Z,1.17
2019-05-03T09:36:40.752Z,1.20
2019-05-03T09:39:11.694Z,1.20
2019-05-03T09:41:45.051Z,1.13
2019-05-03T09:44:18.837Z,1.33
2019-05-03T09:46:50.432Z,1.00
2019-05-03T09:49:25.644Z,1.10
2019-05-03T09:52:02.909Z,1.13
2019-05-03T09:54:45.306Z,1.40
2019-05-03T09:57:16.461Z,1.50
2019-05-03T09:59:57.234Z,2.03
2019-05-03T10:02:30.506Z,1.23
2019-05-03T10:05:02.113Z,1.43
2019-05-03T10:07:35.090Z,1.57
2019-05-03T10:10:06.734Z,1.13
2019-05-03T10:12:45.499Z,1.17
2019-05-03T10:15:40.410Z,1.20
2019-05-03T10:18:15.053Z,1.13
2019-05-03T10:20:46.166Z,1.00
2019-05-03T10:23:39.249Z,1.07
2019-05-03T10:26:16.574Z,1.10
2019-05-03T10:28:47.547Z,1.20
2019-05-03T10:31:20.875Z,1.10
2019-05-03T10:34:01.733Z,1.03
2019-05-03T10:36:32.757Z,1.50
2019-05-03T10:39:04.803Z,1.40
2019-05-03T10:41:35.904Z,1.23
2019-05-03T10:44:06.272Z,1.13
2019-05-03T10:46:37.569Z,0.80
2019-05-03T10:49:08.673Z,4.97
2019-05-03T10:51:45.200Z,2.30
2019-05-03T10:54:15.998Z,1.00
2019-05-03T10:56:55.918Z,1.27
2019-05-03T10:59:27.300Z,2.20
2019-05-03T11:02:07.733Z,3.13
2019-05-03T11:04:54.906Z,1.57
2019-05-03T11:07:26.407Z,1.50
2019-05-03T11:09:57.574Z,1.70
2019-05-03T11:12:28.189Z,1.37
2019-05-03T11:14:59.511Z,1.30
2019-05-03T11:17:30.574Z,1.30
2019-05-03T11:20:22.195Z,1.30
2019-05-03T11:22:46.031Z,1.20
2019-05-03T11:25:17.606Z,2.20
2019-05-03T11:27:52.865Z,1.27
2019-05-03T11:30:24.658Z,1.20
2019-05-03T11:33:18.923Z,1.40
2019-05-03T11:35:55.800Z,1.03
2019-05-03T11:38:29.396Z,0.97
2019-05-03T11:41:00.557Z,1.13
2019-05-03T11:43:31.588Z,0.83
2019-05-03T11:46:02.829Z,0.90
2019-05-03T11:48:35.019Z,0.70
2019-05-03T11:51:05.828Z,1.00
2019-05-03T11:53:37.760Z,1.37
2019-05-03T11:56:14.855Z,1.00
2019-05-03T11:58:48.308Z,1.13
2019-05-03T12:01:37.840Z,0.93
2019-05-03T12:04:10.101Z,1.00
2019-05-03T12:06:41.465Z,1.30
2019-05-03T12:09:15.496Z,1.40
2019-05-03T12:11:46.514Z,1.60
2019-05-03T12:14:20.332Z,1.63
2019-05-03T12:17:18.826Z,1.60
2019-05-03T12:19:36.925Z,1.10
2019-05-03T12:22:06.454Z,1.80
2019-05-03T12:24:38.328Z,1.20
2019-05-03T12:27:10.691Z,1.47
2019-05-03T12:29:45.399Z,1.20
2019-05-03T12:32:20.837Z,1.60
2019-05-03T12:34:52.273Z,1.90
2019-05-03T12:37:24.497Z,2.07
2019-05-03T12:39:56.593Z,2.10
2019-05-03T12:42:27.327Z,2.00
2019-05-03T12:44:59.125Z,2.10
2019-05-03T12:47:34.780Z,2.10
2019-05-03T12:50:07.185Z,2.00
2019-05-03T12:52:49.560Z,2.30
2019-05-03T12:55:11.831Z,2.53
2019-05-03T12:57:45.763Z,3.50
2019-05-03T13:00:50.327Z,3.07
2019-05-03T13:03:37.194Z,3.13
2019-05-03T13:06:10.704Z,3.20
2019-05-03T13:08:45.706Z,3.67
2019-05-03T13:11:19.982Z,4.07
2019-05-03T13:13:51.942Z,4.23
2019-05-03T13:16:24.763Z,4.03
2019-05-03T13:18:58.091Z,4.97
2019-05-03T13:21:28.743Z,4.10
2019-05-03T13:24:01.397Z,3.93
2019-05-03T13:26:35.583Z,3.77
2019-05-03T13:29:06.554Z,4.40
2019-05-03T13:32:02.402Z,4.20
2019-05-03T13:34:35.389Z,4.30
2019-05-03T13:37:25.405Z,4.53
2019-05-03T13:40:02.288Z,4.00
2019-05-03T13:42:35.068Z,4.13
2019-05-03T13:45:07.194Z,4.20
2019-05-03T13:47:57.638Z,4.37
2019-05-03T13:50:29.342Z,3.90
2019-05-03T13:53:09.209Z,4.27
2019-05-03T13:55:44.506Z,4.23
2019-05-03T13:58:16.001Z,4.37
2019-05-03T14:00:51.183Z,3.90
2019-05-03T14:03:27.910Z,4.50
2019-05-03T14:05:59.277Z,4.07
2019-05-03T14:08:30.586Z,4.40
2019-05-03T14:11:02.154Z,4.23
2019-05-03T14:13:35.300Z,3.50
2019-05-03T14:16:07.698Z,3.20
2019-05-03T14:18:41.315Z,3.57
2019-05-03T14:21:30.306Z,3.30
2019-05-03T14:24:25.442Z,2.97
2019-05-03T14:27:15.641Z,2.30
2019-05-03T14:29:49.443Z,2.73
2019-05-03T14:32:26.638Z,2.70
2019-05-03T14:34:59.047Z,2.60
2019-05-03T14:37:37.926Z,2.53
2019-05-03T14:40:09.810Z,2.90
2019-05-03T14:42:44.701Z,2.90
2019-05-03T14:45:16.423Z,2.40
2019-05-03T14:47:49.435Z,2.90
2019-05-03T14:50:20.703Z,2.70
2019-05-03T14:52:56.726Z,2.90
2019-05-03T14:55:34.539Z,3.13
2019-05-03T14:58:25.934Z,3.07
2019-05-03T15:01:06.187Z,2.77
2019-05-03T15:03:37.233Z,2.70
2019-05-03T15:06:08.378Z,2.97
2019-05-03T15:08:39.958Z,2.77
2019-05-03T15:11:14.901Z,3.60
2019-05-03T15:13:46.645Z,2.97
2019-05-03T15:16:18.383Z,3.10
2019-05-03T15:18:50.098Z,3.50
2019-05-03T15:21:21.262Z,2.83
2019-05-03T15:23:54.693Z,3.67
2019-05-03T15:26:25.072Z,3.43
2019-05-03T15:28:56.267Z,3.00
2019-05-03T15:31:29.523Z,3.20
2019-05-03T15:34:00.815Z,3.33
2019-05-03T15:36:32.520Z,3.50
2019-05-03T15:39:04.639Z,3.30
2019-05-03T15:41:41.121Z,3.10
2019-05-03T15:44:30.759Z,2.90
2019-05-03T15:47:25.374Z,3.50
2019-05-03T15:50:09.875Z,3.10
2019-05-03T15:52:40.837Z,3.33
2019-05-03T15:55:12.068Z,3.13
2019-05-03T15:57:44.682Z,3.23
2019-05-03T16:00:16.857Z,3.07
2019-05-03T16:02:47.974Z,3.17
2019-05-03T16:05:18.603Z,3.03
2019-05-03T16:07:49.966Z,3.23
2019-05-03T16:10:21.462Z,20.67
2019-05-03T16:12:54.549Z,19.67
2019-05-03T16:15:45.918Z,5.40
2019-05-03T16:18:24.880Z,2.83
2019-05-03T16:21:02.226Z,3.13
2019-05-03T16:23:46.303Z,3.27
2019-05-03T16:26:17.709Z,2.80
2019-05-03T16:28:57.159Z,3.20
2019-05-03T16:31:30.796Z,3.70
2019-05-03T16:34:02.025Z,2.80
2019-05-03T16:36:34.709Z,3.23
2019-05-03T16:39:09.735Z,2.90
2019-05-03T16:41:57.545Z,2.70
2019-05-03T16:44:32.077Z,3.27
2019-05-03T16:47:12.285Z,3.10
2019-05-03T16:49:45.276Z,2.87
2019-05-03T16:52:25.885Z,2.90
2019-05-03T16:54:57.027Z,3.10
2019-05-03T16:57:28.382Z,2.97
2019-05-03T17:00:00.309Z,3.47
2019-05-03T17:02:31.270Z,4.07
2019-05-03T17:05:10.548Z,5.17
2019-05-03T17:07:49.345Z,4.50
2019-05-03T17:10:47.200Z,4.03
2019-05-03T17:13:18.164Z,4.77
2019-05-03T17:15:49.522Z,3.77
2019-05-03T17:18:20.901Z,4.03
2019-05-03T17:20:52.250Z,4.17
2019-05-03T17:23:24.574Z,3.70
2019-05-03T17:25:55.808Z,3.80
2019-05-03T17:28:27.154Z,3.60
2019-05-03T17:31:00.516Z,4.90
2019-05-03T17:33:31.158Z,4.70
2019-05-03T17:36:01.934Z,4.23
2019-05-03T17:38:35.229Z,3.97
2019-05-03T17:41:45.281Z,4.37
2019-05-03T17:44:20.584Z,3.73
2019-05-03T17:46:51.636Z,4.00
2019-05-03T17:49:24.640Z,4.57
2019-05-03T17:52:21.119Z,4.87
2019-05-03T17:55:19.451Z,4.10
2019-05-03T17:58:09.739Z,4.60
2019-05-03T18:01:05.524Z,4.83
2019-05-03T18:03:38.937Z,4.80
2019-05-03T18:06:25.440Z,5.23
2019-05-03T18:09:22.400Z,5.07
2019-05-03T18:11:55.888Z,5.03
2019-05-03T18:14:27.676Z,6.17
2019-05-03T18:17:00.755Z,5.30
2019-05-03T18:19:31.904Z,6.33
2019-05-03T18:22:05.040Z,5.37
2019-05-03T18:24:36.034Z,6.53
2019-05-03T18:27:07.191Z,6.57
2019-05-03T18:29:58.501Z,6.50
2019-05-03T18:32:29.180Z,11.17
2019-05-03T18:34:59.877Z,7.47
2019-05-03T18:37:31.814Z,6.03
2019-05-03T18:40:04.688Z,5.37
2019-05-03T18:42:41.698Z,5.10
2019-05-03T18:45:39.820Z,5.20
2019-05-03T18:48:10.895Z,5.63
2019-05-03T18:50:41.830Z,5.50
2019-05-03T18:53:15.020Z,7.23
2019-05-03T18:55:45.850Z,6.03
2019-05-03T18:58:18.978Z,5.97
2019-05-03T19:00:54.874Z,6.30
2019-05-03T19:03:26.538Z,6.70
2019-05-03T19:06:01.782Z,6.47
2019-05-03T19:09:05.317Z,6.40
2019-05-03T19:11:47.629Z,5.23
2019-05-03T19:14:21.864Z,7.07
2019-05-03T19:17:05.323Z,6.67
2019-05-03T19:19:45.391Z,4.83
2019-05-03T19:22:17.248Z,5.93
2019-05-03T19:25:01.603Z,6.90
2019-05-03T19:27:45.096Z,5.23
2019-05-03T19:30:18.652Z,5.93
2019-05-03T19:32:50.246Z,9.23
2019-05-03T19:35:21.495Z,12.97
2019-05-03T19:37:52.168Z,11.57
2019-05-03T19:40:25.480Z,10.57
2019-05-03T19:42:58.119Z,9.40
2019-05-03T19:45:30.019Z,11.73
2019-05-03T19:48:04.125Z,7.90
2019-05-03T19:50:35.954Z,5.90
2019-05-03T19:53:14.467Z,6.80
2019-05-03T19:55:50.292Z,6.10
2019-05-03T19:58:18.633Z,4.37
2019-05-03T20:01:08.018Z,4.80
2019-05-03T20:04:00.109Z,4.90
2019-05-03T20:06:45.098Z,4.80
2019-05-03T20:09:20.221Z,4.93
2019-05-03T20:11:55.375Z,4.90
2019-05-03T20:14:26.686Z,5.67
2019-05-03T20:16:57.322Z,5.30
2019-05-03T20:19:30.620Z,5.10
2019-05-03T20:22:05.003Z,5.30
2019-05-03T20:24:48.014Z,6.17
2019-05-03T20:27:24.455Z,6.03
2019-05-03T20:29:56.365Z,5.63
2019-05-03T20:32:27.910Z,5.90
2019-05-03T20:35:10.901Z,5.27
2019-05-03T20:37:34.361Z,6.23
2019-05-03T20:40:08.738Z,5.67
2019-05-03T20:43:04.718Z,5.67
2019-05-03T20:45:54.710Z,5.57
2019-05-03T20:48:37.156Z,5.43
2019-05-03T20:51:10.249Z,6.00
2019-05-03T20:53:41.326Z,5.40
2019-05-03T20:56:12.614Z,6.00
2019-05-03T20:59:02.402Z,5.50
2019-05-03T21:01:34.726Z,5.43
2019-05-03T21:04:06.575Z,5.00
2019-05-03T21:06:37.691Z,6.17
2019-05-03T21:09:09.697Z,5.80
2019-05-03T21:11:45.692Z,5.40
2019-05-03T21:14:17.100Z,6.23
2019-05-03T21:17:27.556Z,5.47
2019-05-03T21:20:20.918Z,5.00
2019-05-03T21:22:59.293Z,5.67
2019-05-03T21:26:02.222Z,5.43
2019-05-03T21:28:17.079Z,6.03
2019-05-03T21:30:56.912Z,5.50
2019-05-03T21:33:31.331Z,5.60
2019-05-03T21:36:17.663Z,5.70
2019-05-03T21:38:55.915Z,5.60
2019-05-03T21:41:32.286Z,5.90
2019-05-03T21:44:04.834Z,5.53
2019-05-03T21:46:48.430Z,5.87
2019-05-03T21:49:25.195Z,5.43
2019-05-03T21:51:56.737Z,5.10
2019-05-03T21:54:29.099Z,5.33
2019-05-03T21:57:11.902Z,6.47
2019-05-03T21:59:50.303Z,6.27
2019-05-03T22:02:25.024Z,6.10
2019-05-03T22:04:57.645Z,5.67
2019-05-03T22:07:30.911Z,5.83
2019-05-03T22:10:05.015Z,5.93
2019-05-03T22:12:40.788Z,5.43
2019-05-03T22:15:34.684Z,4.60
2019-05-03T22:18:31.142Z,5.50
2019-05-03T22:21:25.041Z,4.77
2019-05-03T22:24:14.868Z,5.00
2019-05-03T22:26:56.390Z,5.27
2019-05-03T22:29:28.366Z,5.23
2019-05-03T22:32:05.146Z,5.17
2019-05-03T22:34:36.847Z,5.80
2019-05-03T22:37:07.854Z,5.10
2019-05-03T22:39:40.002Z,5.53
2019-05-03T22:42:10.920Z,5.57
2019-05-03T22:44:44.723Z,6.10
2019-05-03T22:47:16.036Z,6.20
2019-05-03T22:49:46.705Z,5.43
2019-05-03T22:52:17.643Z,5.30
2019-05-03T22:54:48.963Z,6.03
2019-05-03T22:57:38.591Z,6.20
2019-05-03T22:59:56.804Z,6.07
2019-05-03T23:02:28.141Z,6.30
2019-05-03T23:05:00.140Z,5.40
2019-05-03T23:07:35.542Z,6.07
2019-05-03T23:10:07.211Z,6.47
2019-05-03T23:12:38.513Z,5.80
2019-05-03T23:15:10.936Z,6.07
2019-05-03T23:17:54.561Z,6.53
2019-05-03T23:20:34.490Z,6.17
2019-05-03T23:23:06.099Z,5.80
2019-05-03T23:25:37.744Z,5.53
2019-05-03T23:28:11.202Z,5.70
2019-05-03T23:30:44.528Z,6.13
2019-05-03T23:33:15.958Z,6.33
2019-05-03T23:35:48.334Z,6.00
2019-05-03T23:38:24.665Z,6.03
2019-05-03T23:40:56.400Z,5.77
2019-05-03T23:43:32.701Z,6.23
2019-05-03T23:46:17.168Z,5.57
2019-05-03T23:49:05.582Z,6.37
2019-05-03T23:52:04.471Z,6.40
2019-05-03T23:54:35.721Z,6.60
2019-05-03T23:57:08.794Z,5.67
2019-05-03T23:59:40.228Z,6.43
